Time;durP1;ratioP1;P1;durP2;ratioP2;P2;SDS_P1;SDS_P2;PMS_P1;PMS_P2;Temp;Humidity;BMP_temperature;BMP_pressure;BME280_temperature;BME280_humidity;BME280_pressure;Samples;Min_cycle;Max_cycle;Signal;HPM_P1;HPM_P2
2022/08/14 00:00:50;;;;;;;7.60;6.07;;;;;;;;;;4990941;28;20049;-57
2022/08/14 00:03:19;;;;;;;6.47;5.80;;;;;;;;;;4991679;28;20119;-57
2022/08/14 00:05:45;;;;;;;8.55;6.20;;;;;;;;;;4991628;28;20042;-57
2022/08/14 00:08:11;;;;;;;8.10;6.13;;;;;;;;;;4991044;28;20050;-57
2022/08/14 00:10:37;;;;;;;7.18;6.00;;;;;;;;;;4991597;28;20129;-57
2022/08/14 00:13:04;;;;;;;8.02;5.80;;;;;;;;;;4991403;28;20410;-57
2022/08/14 00:15:33;;;;;;;6.95;6.28;;;;;;;;;;4991092;28;20405;-57
2022/08/14 00:17:59;;;;;;;8.95;6.13;;;;;;;;;;4991203;28;20533;-57
2022/08/14 00:20:29;;;;;;;9.13;6.60;;;;;;;;;;4991396;28;20039;-56
2022/08/14 00:22:55;;;;;;;7.30;6.60;;;;;;;;;;4990765;28;20042;-57
2022/08/14 00:25:21;;;;;;;9.50;6.22;;;;;;;;;;4991156;28;20567;-55
2022/08/14 00:27:47;;;;;;;9.13;6.75;;;;;;;;;;4991043;28;20042;-57
2022/08/14 00:30:14;;;;;;;8.13;6.38;;;;;;;;;;4973371;28;20058;-57
2022/08/14 00:32:41;;;;;;;8.48;6.45;;;;;;;;;;4990993;28;20470;-57
2022/08/14 00:35:08;;;;;;;8.85;5.95;;;;;;;;;;4991104;28;20049;-57
2022/08/14 00:37:34;;;;;;;7.75;6.25;;;;;;;;;;4990509;28;20057;-57
2022/08/14 00:40:01;;;;;;;10.77;6.28;;;;;;;;;;4991114;28;20096;-57
2022/08/14 00:42:28;;;;;;;7.60;6.68;;;;;;;;;;4973452;28;20089;-57
2022/08/14 00:44:55;;;;;;;7.82;7.03;;;;;;;;;;4990447;28;20489;-57
2022/08/14 00:47:23;;;;;;;9.02;6.20;;;;;;;;;;4990305;28;20053;-57
2022/08/14 00:49:50;;;;;;;8.38;6.28;;;;;;;;;;4990342;28;20410;-57
2022/08/14 00:52:16;;;;;;;8.05;6.78;;;;;;;;;;4990286;28;20458;-56
2022/08/14 00:54:44;;;;;;;8.20;6.47;;;;;;;;;;4990502;28;20046;-56
2022/08/14 00:57:11;;;;;;;7.85;6.35;;;;;;;;;;4990623;28;20387;-56
2022/08/14 00:59:37;;;;;;;12.23;6.90;;;;;;;;;;4990480;28;20586;-57
2022/08/14 01:02:04;;;;;;;7.68;6.65;;;;;;;;;;4990685;28;20070;-57
2022/08/14 01:04:35;;;;;;;9.93;6.05;;;;;;;;;;4990518;28;20548;-57
2022/08/14 01:07:01;;;;;;;7.72;5.93;;;;;;;;;;4990313;28;20050;-56
2022/08/14 01:09:28;;;;;;;7.50;6.30;;;;;;;;;;4990597;28;20072;-57
2022/08/14 01:11:56;;;;;;;6.75;6.00;;;;;;;;;;4990488;28;20360;-57
2022/08/14 01:14:22;;;;;;;8.68;6.35;;;;;;;;;;4990327;28;20500;-57
2022/08/14 01:16:48;;;;;;;8.25;6.15;;;;;;;;;;4990144;28;20133;-57
2022/08/14 01:21:59;;;;;;;6.88;5.85;;;;;;;;;;4989782;28;20042;-57
2022/08/14 01:24:26;;;;;;;8.90;6.50;;;;;;;;;;4956410;28;20050;-57
2022/08/14 01:26:52;;;;;;;6.78;6.18;;;;;;;;;;4972577;28;20043;-57
2022/08/14 01:29:18;;;;;;;7.82;6.25;;;;;;;;;;4989895;28;20242;-57
2022/08/14 01:34:10;;;;;;;10.20;6.72;;;;;;;;;;4990168;28;20057;-56
2022/08/14 01:36:37;;;;;;;7.55;6.60;;;;;;;;;;4990020;28;20038;-57
2022/08/14 01:39:16;;;;;;;9.88;6.78;;;;;;;;;;4990114;28;20133;-57
2022/08/14 01:41:43;;;;;;;7.50;6.43;;;;;;;;;;4989813;28;20096;-57
2022/08/14 01:44:12;;;;;;;8.15;6.47;;;;;;;;;;4989418;28;20046;-56
2022/08/14 01:46:39;;;;;;;7.63;6.82;;;;;;;;;;4990042;28;20125;-57
2022/08/14 01:49:07;;;;;;;7.47;6.65;;;;;;;;;;4989559;28;20054;-55
2022/08/14 01:51:33;;;;;;;8.32;6.75;;;;;;;;;;4989199;28;20062;-57
2022/08/14 01:54:10;;;;;;;7.95;6.90;;;;;;;;;;4989978;28;20042;-57
2022/08/14 01:59:07;;;;;;;8.50;6.75;;;;;;;;;;4993465;28;20049;-56
2022/08/14 02:01:34;;;;;;;10.70;6.68;;;;;;;;;;4993853;28;20038;-57
2022/08/14 02:04:01;;;;;;;8.43;6.63;;;;;;;;;;4993788;28;20143;-55
2022/08/14 02:06:28;;;;;;;7.97;6.70;;;;;;;;;;4993213;28;20217;-56
2022/08/14 02:08:54;;;;;;;8.45;7.18;;;;;;;;;;4993775;28;20508;-57
2022/08/14 02:11:23;;;;;;;8.18;6.80;;;;;;;;;;4993872;28;20039;-57
2022/08/14 02:13:49;;;;;;;9.98;7.65;;;;;;;;;;4993031;28;20054;-57
2022/08/14 02:16:16;;;;;;;8.13;6.85;;;;;;;;;;4993462;28;20041;-57
2022/08/14 02:18:44;;;;;;;8.65;6.78;;;;;;;;;;4993559;28;20451;-56
2022/08/14 02:21:11;;;;;;;9.95;7.15;;;;;;;;;;4993161;28;20061;-56
2022/08/14 02:23:38;;;;;;;9.27;7.07;;;;;;;;;;4993296;28;20046;-56
2022/08/14 02:26:13;;;;;;;9.68;6.93;;;;;;;;;;4993243;28;20124;-57
2022/08/14 02:28:39;;;;;;;7.38;6.25;;;;;;;;;;4975294;28;20044;-57
2022/08/14 02:31:07;;;;;;;9.35;7.03;;;;;;;;;;4993475;28;20042;-57
2022/08/14 02:33:34;;;;;;;8.43;7.15;;;;;;;;;;4993037;28;20050;-57
2022/08/14 02:36:01;;;;;;;9.48;7.35;;;;;;;;;;4992827;28;20113;-57
2022/08/14 02:38:27;;;;;;;10.18;7.55;;;;;;;;;;4993081;28;20042;-57
2022/08/14 02:40:53;;;;;;;8.02;7.32;;;;;;;;;;4975607;28;20050;-57
2022/08/14 02:43:20;;;;;;;11.40;7.43;;;;;;;;;;4992947;28;20404;-56
2022/08/14 02:45:46;;;;;;;10.85;7.45;;;;;;;;;;4993075;28;20042;-57
2022/08/14 02:48:13;;;;;;;8.80;7.43;;;;;;;;;;4974930;28;20062;-57
2022/08/14 02:50:40;;;;;;;10.35;7.47;;;;;;;;;;4992839;28;20060;-56
2022/08/14 02:53:06;;;;;;;9.32;7.47;;;;;;;;;;4993040;28;20042;-56
2022/08/14 02:55:33;;;;;;;9.75;7.45;;;;;;;;;;4992598;28;20123;-56
2022/08/14 02:57:59;;;;;;;10.05;6.97;;;;;;;;;;4992783;28;20042;-56
2022/08/14 03:00:25;;;;;;;10.15;8.02;;;;;;;;;;4992841;28;20034;-56
2022/08/14 03:02:51;;;;;;;8.45;7.22;;;;;;;;;;4992730;28;20057;-53
2022/08/14 03:05:17;;;;;;;9.95;8.00;;;;;;;;;;4992588;28;20477;-57
2022/08/14 03:07:43;;;;;;;11.05;7.60;;;;;;;;;;4991415;28;20452;-57
2022/08/14 03:10:10;;;;;;;8.50;7.43;;;;;;;;;;4975301;28;20485;-56
2022/08/14 03:12:36;;;;;;;12.65;8.85;;;;;;;;;;4992732;28;20050;-57
2022/08/14 03:15:12;;;;;;;8.95;7.95;;;;;;;;;;4991943;28;20080;-56
2022/08/14 03:17:39;;;;;;;10.00;7.78;;;;;;;;;;4992432;28;20116;-56
2022/08/14 03:20:06;;;;;;;9.65;8.10;;;;;;;;;;4992539;28;20042;-56
2022/08/14 03:22:32;;;;;;;9.52;8.52;;;;;;;;;;4992039;28;20046;-57
2022/08/14 03:25:00;;;;;;;9.82;8.35;;;;;;;;;;4992306;28;20516;-57
2022/08/14 03:27:30;;;;;;;9.35;8.45;;;;;;;;;;4992039;28;20065;-56
2022/08/14 03:29:56;;;;;;;11.10;8.73;;;;;;;;;;4992058;28;20042;-57
2022/08/14 03:32:23;;;;;;;9.57;8.18;;;;;;;;;;4992268;28;20551;-56
2022/08/14 03:34:49;;;;;;;9.82;8.77;;;;;;;;;;4992352;28;20066;-56
2022/08/14 03:37:15;;;;;;;10.15;8.55;;;;;;;;;;4991794;28;20157;-57
2022/08/14 03:39:41;;;;;;;11.35;8.50;;;;;;;;;;4991942;28;20058;-56
2022/08/14 03:42:07;;;;;;;11.00;8.90;;;;;;;;;;4992099;28;20042;-56
2022/08/14 03:44:34;;;;;;;11.13;8.75;;;;;;;;;;4991698;28;20559;-57
2022/08/14 03:47:00;;;;;;;12.85;8.57;;;;;;;;;;4991831;28;20042;-57
2022/08/14 03:49:26;;;;;;;13.23;9.02;;;;;;;;;;4991715;28;20465;-57
2022/08/14 03:51:52;;;;;;;11.43;8.85;;;;;;;;;;4991493;28;20089;-56
2022/08/14 03:54:18;;;;;;;11.93;9.40;;;;;;;;;;4991796;28;20050;-56
2022/08/14 03:56:44;;;;;;;10.65;8.93;;;;;;;;;;4991864;28;20042;-56
2022/08/14 03:59:12;;;;;;;11.60;10.40;;;;;;;;;;4991497;28;20038;-56
2022/08/14 04:01:39;;;;;;;14.15;10.25;;;;;;;;;;4991615;28;20089;-56
2022/08/14 04:04:06;;;;;;;10.68;9.52;;;;;;;;;;4991708;28;20113;-54
2022/08/14 04:06:33;;;;;;;12.98;9.48;;;;;;;;;;4991047;28;20049;-57
2022/08/14 04:08:59;;;;;;;12.52;9.48;;;;;;;;;;4991316;28;20046;-57
2022/08/14 04:11:26;;;;;;;11.98;9.02;;;;;;;;;;4974081;28;20042;-57
2022/08/14 04:13:53;;;;;;;10.40;8.93;;;;;;;;;;4990722;28;20085;-56
2022/08/14 04:16:21;;;;;;;12.40;9.68;;;;;;;;;;4991469;28;20046;-57
2022/08/14 04:18:49;;;;;;;10.38;9.27;;;;;;;;;;4990899;28;20184;-56
2022/08/14 04:21:16;;;;;;;13.43;10.18;;;;;;;;;;4990906;28;20039;-57
2022/08/14 04:23:42;;;;;;;16.38;9.98;;;;;;;;;;4991148;28;20046;-57
2022/08/14 04:26:10;;;;;;;13.82;9.73;;;;;;;;;;4991130;28;20050;-57
2022/08/14 04:28:37;;;;;;;9.95;8.95;;;;;;;;;;4973288;28;20413;-57
2022/08/14 04:31:03;;;;;;;12.43;9.82;;;;;;;;;;4991313;28;20038;-56
2022/08/14 04:33:29;;;;;;;9.98;8.98;;;;;;;;;;4991100;28;20691;-57
2022/08/14 04:35:55;;;;;;;14.27;8.77;;;;;;;;;;4990678;28;20074;-57
2022/08/14 04:43:52;;;;;;;9.02;7.78;;;;;;;;;;4972971;28;20489;-56
2022/08/14 04:46:19;;;;;;;9.55;8.38;;;;;;;;;;4990802;28;20042;-57
2022/08/14 04:48:45;;;;;;;11.07;8.77;;;;;;;;;;4990264;28;20050;-56
2022/08/14 04:51:13;;;;;;;8.85;7.90;;;;;;;;;;4990030;28;20046;-54
2022/08/14 04:53:43;;;;;;;12.73;9.32;;;;;;;;;;4990612;28;20248;-55
2022/08/14 04:56:10;;;;;;;12.23;9.00;;;;;;;;;;4990805;28;20030;-57
2022/08/14 04:58:36;;;;;;;10.85;9.15;;;;;;;;;;4990068;28;20046;-56
2022/08/14 05:01:06;;;;;;;10.75;8.85;;;;;;;;;;4990703;28;20113;-55
2022/08/14 05:03:34;;;;;;;12.32;10.23;;;;;;;;;;4990608;28;20053;-57
2022/08/14 05:06:01;;;;;;;12.60;9.45;;;;;;;;;;4989915;28;20057;-56
2022/08/14 05:08:28;;;;;;;13.63;9.27;;;;;;;;;;4990421;28;20490;-56
2022/08/14 05:10:55;;;;;;;9.90;8.90;;;;;;;;;;4990468;28;20432;-57
2022/08/14 05:13:26;;;;;;;10.93;9.82;;;;;;;;;;4989967;28;20046;-57
2022/08/14 05:15:52;;;;;;;11.05;8.95;;;;;;;;;;4990209;28;20409;-57
2022/08/14 05:18:23;;;;;;;12.27;10.45;;;;;;;;;;4989964;28;20133;-57
2022/08/14 05:20:51;;;;;;;12.00;10.07;;;;;;;;;;4989974;28;20102;-57
2022/08/14 05:23:18;;;;;;;11.73;9.18;;;;;;;;;;4990099;28;20057;-57
2022/08/14 05:25:46;;;;;;;13.93;10.15;;;;;;;;;;4990353;28;20074;-56
2022/08/14 05:28:20;;;;;;;13.10;10.23;;;;;;;;;;4972368;28;20038;-53
2022/08/14 05:30:47;;;;;;;12.95;9.73;;;;;;;;;;4989910;28;20053;-57
2022/08/14 05:33:14;;;;;;;12.27;10.38;;;;;;;;;;4990236;28;20074;-57
2022/08/14 05:35:40;;;;;;;12.25;8.95;;;;;;;;;;4989806;28;20432;-57
2022/08/14 05:38:12;;;;;;;11.80;9.27;;;;;;;;;;4989865;28;20185;-57
2022/08/14 05:40:39;;;;;;;13.00;9.18;;;;;;;;;;4990154;28;20456;-56
2022/08/14 05:43:05;;;;;;;10.60;9.55;;;;;;;;;;4989430;28;20113;-57
2022/08/14 05:45:31;;;;;;;10.27;9.27;;;;;;;;;;4972732;28;20176;-57
2022/08/14 05:47:57;;;;;;;10.73;9.63;;;;;;;;;;4989760;28;20485;-57
2022/08/14 05:50:23;;;;;;;14.45;9.45;;;;;;;;;;4989410;28;20054;-57
2022/08/14 05:52:49;;;;;;;10.15;8.43;;;;;;;;;;4990125;28;20210;-57
2022/08/14 05:55:15;;;;;;;15.55;9.70;;;;;;;;;;4990430;28;20030;-56
2022/08/14 05:57:53;;;;;;;9.38;8.38;;;;;;;;;;4989514;28;20124;-56
2022/08/14 06:00:20;;;;;;;10.80;8.38;;;;;;;;;;4989806;28;20061;-56
2022/08/14 06:02:46;;;;;;;10.02;9.02;;;;;;;;;;4990134;28;20046;-56
2022/08/14 06:05:12;;;;;;;10.98;8.88;;;;;;;;;;4989594;28;20045;-57
2022/08/14 06:07:38;;;;;;;9.68;8.68;;;;;;;;;;4989580;28;20085;-56
2022/08/14 06:10:05;;;;;;;9.75;8.75;;;;;;;;;;4989708;28;20043;-56
2022/08/14 06:12:31;;;;;;;11.15;8.68;;;;;;;;;;4989445;28;20054;-56
2022/08/14 06:14:58;;;;;;;12.23;8.70;;;;;;;;;;4990047;28;20478;-57
2022/08/14 06:17:24;;;;;;;8.95;8.05;;;;;;;;;;4989862;28;20113;-56
2022/08/14 06:19:50;;;;;;;10.15;8.85;;;;;;;;;;4989435;28;20493;-56
2022/08/14 06:22:16;;;;;;;11.73;9.15;;;;;;;;;;4989522;28;20105;-56
2022/08/14 06:24:42;;;;;;;11.25;9.23;;;;;;;;;;4989889;28;20042;-57
2022/08/14 06:27:08;;;;;;;10.98;8.88;;;;;;;;;;4989232;28;20448;-57
2022/08/14 06:29:35;;;;;;;10.70;9.60;;;;;;;;;;4989828;28;20485;-57
2022/08/14 06:32:02;;;;;;;10.85;9.10;;;;;;;;;;4989669;28;20046;-57
2022/08/14 06:34:28;;;;;;;13.05;9.20;;;;;;;;;;4989299;28;20544;-56
2022/08/14 06:36:57;;;;;;;10.65;8.65;;;;;;;;;;4989600;28;20043;-53
2022/08/14 06:39:23;;;;;;;10.00;9.00;;;;;;;;;;4972136;28;20065;-57
2022/08/14 06:41:49;;;;;;;11.38;8.73;;;;;;;;;;4991890;28;20046;-56
2022/08/14 06:44:15;;;;;;;10.05;9.02;;;;;;;;;;4993245;28;20064;-56
2022/08/14 06:46:41;;;;;;;10.40;8.75;;;;;;;;;;4993284;28;20042;-56
2022/08/14 06:49:07;;;;;;;9.07;8.18;;;;;;;;;;4992406;28;20051;-57
2022/08/14 06:51:34;;;;;;;12.13;8.50;;;;;;;;;;4993004;28;20121;-56
2022/08/14 06:54:00;;;;;;;13.73;8.95;;;;;;;;;;4993077;28;20050;-57
2022/08/14 06:56:26;;;;;;;10.23;7.97;;;;;;;;;;4992775;28;20092;-56
2022/08/14 06:58:52;;;;;;;10.05;8.35;;;;;;;;;;4992960;28;20046;-57
2022/08/14 07:06:48;;;;;;;8.75;7.63;;;;;;;;;;4992853;28;20387;-57
2022/08/14 07:09:14;;;;;;;10.68;8.40;;;;;;;;;;4992757;28;20047;-57
2022/08/14 07:11:41;;;;;;;9.90;8.13;;;;;;;;;;4992280;28;20051;-57
2022/08/14 07:14:07;;;;;;;9.45;7.50;;;;;;;;;;4992732;28;20049;-57
2022/08/14 07:16:33;;;;;;;8.88;7.85;;;;;;;;;;4992701;28;20043;-57
2022/08/14 07:18:59;;;;;;;9.25;7.47;;;;;;;;;;4991989;28;20049;-55
2022/08/14 07:21:25;;;;;;;9.57;7.35;;;;;;;;;;4992482;28;20045;-57
2022/08/14 07:23:51;;;;;;;9.98;7.50;;;;;;;;;;4992516;28;20105;-56
2022/08/14 07:26:17;;;;;;;8.10;7.30;;;;;;;;;;4992028;28;20053;-57
2022/08/14 07:28:43;;;;;;;10.15;7.28;;;;;;;;;;4992313;28;20038;-57
2022/08/14 07:31:10;;;;;;;8.73;7.07;;;;;;;;;;4992248;28;20042;-57
2022/08/14 07:33:37;;;;;;;8.68;7.32;;;;;;;;;;4992161;28;20449;-57
2022/08/14 07:36:05;;;;;;;7.13;6.47;;;;;;;;;;4992404;28;20469;-57
2022/08/14 07:38:31;;;;;;;10.05;7.47;;;;;;;;;;4992172;28;20046;-57
2022/08/14 07:40:58;;;;;;;10.25;6.80;;;;;;;;;;4991988;28;20134;-55
2022/08/14 07:43:24;;;;;;;11.38;6.85;;;;;;;;;;4992163;28;20050;-57
2022/08/14 07:45:50;;;;;;;7.97;6.88;;;;;;;;;;4992062;28;20145;-57
2022/08/14 07:48:16;;;;;;;7.57;6.22;;;;;;;;;;4991239;28;20073;-57
2022/08/14 07:50:42;;;;;;;8.32;6.50;;;;;;;;;;4991743;28;20077;-57
2022/08/14 07:53:09;;;;;;;15.20;7.20;;;;;;;;;;4991097;28;20129;-57
2022/08/14 07:55:35;;;;;;;8.10;7.13;;;;;;;;;;4991469;28;20046;-57
2022/08/14 07:58:01;;;;;;;9.98;7.43;;;;;;;;;;4991774;28;20390;-54
2022/08/14 08:00:28;;;;;;;8.85;7.05;;;;;;;;;;4991765;28;20049;-57
2022/08/14 08:02:55;;;;;;;9.35;6.60;;;;;;;;;;4991285;28;20054;-57
2022/08/14 08:05:23;;;;;;;10.32;6.75;;;;;;;;;;4991660;28;20046;-57
2022/08/14 08:07:49;;;;;;;8.77;6.88;;;;;;;;;;4991293;28;20560;-57
2022/08/14 08:10:32;;;;;;;7.60;6.80;;;;;;;;;;4991219;28;20042;-57
2022/08/14 08:13:02;;;;;;;9.05;7.10;;;;;;;;;;4991461;28;20498;-56
2022/08/14 08:15:30;;;;;;;7.10;6.45;;;;;;;;;;4991523;28;20046;-56
2022/08/14 08:17:56;;;;;;;9.50;7.18;;;;;;;;;;4991056;28;20046;-57
2022/08/14 08:20:25;;;;;;;8.73;7.10;;;;;;;;;;4973873;28;20042;-57
2022/08/14 08:22:51;;;;;;;8.60;6.45;;;;;;;;;;4991246;28;20058;-57
2022/08/14 08:25:17;;;;;;;8.13;6.97;;;;;;;;;;4990780;28;20042;-54
2022/08/14 08:27:53;;;;;;;7.43;6.60;;;;;;;;;;4991194;28;20042;-57
2022/08/14 08:30:20;;;;;;;7.82;6.60;;;;;;;;;;4973808;28;20125;-57
2022/08/14 08:32:46;;;;;;;7.63;6.55;;;;;;;;;;4990769;28;20592;-57
2022/08/14 08:35:19;;;;;;;7.57;6.72;;;;;;;;;;4991153;28;20125;-57
2022/08/14 08:37:46;;;;;;;8.50;7.30;;;;;;;;;;4991365;28;20062;-57
2022/08/14 08:40:21;;;;;;;7.65;6.55;;;;;;;;;;4990747;28;20520;-57
2022/08/14 08:42:47;;;;;;;7.25;6.20;;;;;;;;;;4991005;28;20109;-57
2022/08/14 08:45:17;;;;;;;7.72;6.20;;;;;;;;;;4990918;28;20457;-57
2022/08/14 08:47:43;;;;;;;7.85;6.45;;;;;;;;;;4990027;28;20085;-56
2022/08/14 08:50:24;;;;;;;7.95;6.70;;;;;;;;;;4990868;28;20074;-57
2022/08/14 08:52:51;;;;;;;7.53;6.35;;;;;;;;;;4990586;28;20046;-57
2022/08/14 08:55:24;;;;;;;6.78;5.88;;;;;;;;;;4990519;28;20039;-56
2022/08/14 08:57:54;;;;;;;6.97;6.38;;;;;;;;;;4990643;28;20473;-57
2022/08/14 09:00:20;;;;;;;6.82;6.13;;;;;;;;;;4990705;28;20046;-57
2022/08/14 09:02:53;;;;;;;7.82;6.13;;;;;;;;;;4989896;28;20042;-57
2022/08/14 09:05:19;;;;;;;6.28;5.68;;;;;;;;;;4989717;28;20504;-58
2022/08/14 09:07:45;;;;;;;5.95;5.35;;;;;;;;;;4990565;28;20472;-57
2022/08/14 09:10:11;;;;;;;7.93;5.82;;;;;;;;;;4990244;28;20509;-57
2022/08/14 09:12:38;;;;;;;6.63;5.70;;;;;;;;;;4990390;28;20126;-57
2022/08/14 09:15:05;;;;;;;6.10;5.50;;;;;;;;;;4990252;28;20048;-57
2022/08/14 09:17:32;;;;;;;9.73;6.18;;;;;;;;;;4989997;28;20042;-55
2022/08/14 09:19:58;;;;;;;7.70;6.07;;;;;;;;;;4990320;28;20125;-56
2022/08/14 09:22:24;;;;;;;7.78;5.68;;;;;;;;;;4972967;28;20170;-56
2022/08/14 09:24:51;;;;;;;6.82;6.20;;;;;;;;;;4989689;28;20038;-56
2022/08/14 09:27:17;;;;;;;5.90;5.30;;;;;;;;;;4989902;28;20061;-56
2022/08/14 09:29:43;;;;;;;5.85;5.35;;;;;;;;;;4990309;28;20046;-57
2022/08/14 09:32:11;;;;;;;6.85;6.00;;;;;;;;;;4989823;28;20180;-56
2022/08/14 09:34:37;;;;;;;7.03;6.00;;;;;;;;;;4990086;28;20077;-57
2022/08/14 09:37:03;;;;;;;6.75;5.97;;;;;;;;;;4990165;28;20069;-57
2022/08/14 09:39:29;;;;;;;5.95;5.32;;;;;;;;;;4989786;28;20038;-57
2022/08/14 09:41:55;;;;;;;6.90;5.55;;;;;;;;;;4990229;28;20146;-57
2022/08/14 09:44:40;;;;;;;6.88;5.85;;;;;;;;;;4990106;28;20052;-57
2022/08/14 09:47:05;;;;;;;6.47;5.50;;;;;;;;;;4989877;28;20049;-56
2022/08/14 09:49:33;;;;;;;6.88;5.72;;;;;;;;;;4989578;28;20054;-57
2022/08/14 09:52:09;;;;;;;6.32;5.57;;;;;;;;;;4990005;28;20042;-58
2022/08/14 09:54:36;;;;;;;6.85;6.25;;;;;;;;;;4989684;28;20034;-58
2022/08/14 09:57:05;;;;;;;8.07;5.82;;;;;;;;;;4989945;28;20092;-56
2022/08/14 09:59:39;;;;;;;8.15;5.90;;;;;;;;;;4990131;28;20719;-57
2022/08/14 10:02:16;;;;;;;6.60;6.00;;;;;;;;;;4972112;28;20330;-57
2022/08/14 10:04:43;;;;;;;8.18;5.80;;;;;;;;;;4989906;28;20049;-57
2022/08/14 10:07:09;;;;;;;7.90;6.38;;;;;;;;;;4989827;28;20408;-57
2022/08/14 10:09:49;;;;;;;6.15;5.63;;;;;;;;;;4989771;28;20477;-56
2022/08/14 10:12:15;;;;;;;8.23;5.70;;;;;;;;;;4989873;28;20093;-57
2022/08/14 10:14:41;;;;;;;6.97;5.28;;;;;;;;;;4989594;28;20065;-57
2022/08/14 10:17:07;;;;;;;5.38;4.85;;;;;;;;;;4993377;28;20080;-58
2022/08/14 10:19:33;;;;;;;6.20;5.60;;;;;;;;;;4993822;28;20045;-58
2022/08/14 10:22:11;;;;;;;7.07;5.53;;;;;;;;;;4993941;28;20093;-57
2022/08/14 10:24:39;;;;;;;5.75;5.15;;;;;;;;;;4993515;28;20084;-58
2022/08/14 10:27:15;;;;;;;7.70;5.45;;;;;;;;;;4993544;28;20042;-57
2022/08/14 10:29:42;;;;;;;5.43;4.90;;;;;;;;;;4992946;28;20845;-58
2022/08/14 10:32:10;;;;;;;6.95;5.30;;;;;;;;;;4993562;28;20057;-57
2022/08/14 10:34:40;;;;;;;5.88;5.30;;;;;;;;;;4993514;28;20050;-58
2022/08/14 10:37:08;;;;;;;9.27;5.88;;;;;;;;;;4993250;28;20042;-58
2022/08/14 10:39:35;;;;;;;8.10;5.70;;;;;;;;;;4993206;28;20045;-58
2022/08/14 10:42:07;;;;;;;7.57;5.03;;;;;;;;;;4993499;28;20040;-58
2022/08/14 10:44:37;;;;;;;5.90;5.28;;;;;;;;;;4992904;28;20045;-56
2022/08/14 10:47:09;;;;;;;6.03;5.43;;;;;;;;;;4992759;28;20405;-57
2022/08/14 10:49:36;;;;;;;5.43;4.93;;;;;;;;;;4975453;28;20062;-58
2022/08/14 10:52:07;;;;;;;5.60;5.10;;;;;;;;;;4992681;28;20092;-57
2022/08/14 10:54:35;;;;;;;6.30;5.35;;;;;;;;;;4993163;28;20462;-57
2022/08/14 10:57:14;;;;;;;7.47;5.45;;;;;;;;;;4992966;28;20046;-58
2022/08/14 10:59:44;;;;;;;5.38;4.88;;;;;;;;;;4992746;28;20621;-56
2022/08/14 11:02:20;;;;;;;6.20;4.90;;;;;;;;;;4992782;28;20140;-58
2022/08/14 11:05:01;;;;;;;5.47;4.90;;;;;;;;;;4992811;28;20134;-57
2022/08/14 11:07:28;;;;;;;5.90;5.40;;;;;;;;;;4992295;28;20042;-58
2022/08/14 11:10:05;;;;;;;7.47;5.05;;;;;;;;;;4992734;28;20046;-58
2022/08/14 11:12:46;;;;;;;5.90;5.40;;;;;;;;;;4992682;28;20068;-57
2022/08/14 11:15:13;;;;;;;6.25;5.30;;;;;;;;;;4992217;28;20493;-58
2022/08/14 11:17:39;;;;;;;7.72;4.80;;;;;;;;;;4992453;28;20402;-57
2022/08/14 11:20:07;;;;;;;6.50;5.80;;;;;;;;;;4992616;28;20046;-58
2022/08/14 11:22:33;;;;;;;5.10;4.70;;;;;;;;;;4974268;28;20041;-58
2022/08/14 11:25:05;;;;;;;5.90;5.30;;;;;;;;;;4992415;28;20042;-57
2022/08/14 11:27:32;;;;;;;5.65;5.15;;;;;;;;;;4991376;28;20042;-58
2022/08/14 11:30:02;;;;;;;7.57;5.43;;;;;;;;;;4992073;28;20057;-56
2022/08/14 11:32:29;;;;;;;5.53;4.80;;;;;;;;;;4992439;28;20050;-58
2022/08/14 11:34:56;;;;;;;5.47;5.00;;;;;;;;;;4975075;28;20038;-58
2022/08/14 11:37:23;;;;;;;5.90;5.30;;;;;;;;;;4991472;28;20050;-58
2022/08/14 11:39:49;;;;;;;5.30;4.80;;;;;;;;;;4992226;28;20070;-58
2022/08/14 11:42:25;;;;;;;5.72;5.05;;;;;;;;;;4992160;28;20039;-57
2022/08/14 11:44:52;;;;;;;5.38;4.88;;;;;;;;;;4972116;28;20042;-58
2022/08/14 11:47:19;;;;;;;5.53;5.00;;;;;;;;;;4972223;28;20346;-58
2022/08/14 11:49:48;;;;;;;5.85;4.57;;;;;;;;;;4972234;28;20063;-57
2022/08/14 11:52:16;;;;;;;5.05;4.50;;;;;;;;;;4972491;28;20094;-58
2022/08/14 11:54:42;;;;;;;6.15;4.60;;;;;;;;;;4972489;28;20047;-58
2022/08/14 11:57:18;;;;;;;5.47;4.60;;;;;;;;;;4972530;28;20045;-58
2022/08/14 11:59:44;;;;;;;7.60;6.10;;;;;;;;;;4972054;28;20046;-56
2022/08/14 12:02:16;;;;;;;5.25;4.75;;;;;;;;;;4972440;28;20127;-58
2022/08/14 12:04:52;;;;;;;8.13;5.47;;;;;;;;;;4972427;28;20042;-58
2022/08/14 12:07:19;;;;;;;6.20;4.65;;;;;;;;;;4971864;28;20046;-58
2022/08/14 12:09:45;;;;;;;5.25;4.70;;;;;;;;;;4972251;28;20043;-58
2022/08/14 12:12:16;;;;;;;4.60;4.15;;;;;;;;;;4972292;28;20458;-58
2022/08/14 12:14:48;;;;;;;5.00;4.03;;;;;;;;;;4971600;28;20042;-58
2022/08/14 12:17:14;;;;;;;5.30;4.70;;;;;;;;;;4972102;28;20043;-58
2022/08/14 12:19:47;;;;;;;5.10;4.60;;;;;;;;;;4972317;28;20479;-58
2022/08/14 12:22:13;;;;;;;5.40;4.90;;;;;;;;;;4971641;28;20054;-58
2022/08/14 12:24:42;;;;;;;5.25;4.80;;;;;;;;;;4972017;28;20132;-58
2022/08/14 12:27:08;;;;;;;5.20;4.78;;;;;;;;;;4989661;28;20097;-58
2022/08/14 12:29:34;;;;;;;5.43;4.90;;;;;;;;;;4990958;28;20069;-58
2022/08/14 12:32:03;;;;;;;6.43;4.72;;;;;;;;;;4991247;28;20046;-58
2022/08/14 12:34:36;;;;;;;6.28;4.70;;;;;;;;;;4991192;28;20046;-58
2022/08/14 12:37:05;;;;;;;5.80;4.40;;;;;;;;;;4990723;28;20046;-58
2022/08/14 12:39:32;;;;;;;6.80;4.55;;;;;;;;;;4973422;28;20050;-58
2022/08/14 12:42:09;;;;;;;4.88;4.38;;;;;;;;;;4991016;28;20077;-59
2022/08/14 12:44:41;;;;;;;4.78;4.25;;;;;;;;;;4990457;28;20061;-58
2022/08/14 12:47:16;;;;;;;4.50;4.07;;;;;;;;;;4990844;28;20085;-58
2022/08/14 12:49:53;;;;;;;4.00;3.70;;;;;;;;;;4990967;28;20069;-59
2022/08/14 12:52:32;;;;;;;5.20;4.20;;;;;;;;;;4990329;28;20054;-59
2022/08/14 12:55:05;;;;;;;5.07;3.97;;;;;;;;;;4991096;28;20496;-58
2022/08/14 12:57:35;;;;;;;3.92;3.63;;;;;;;;;;4990290;28;20140;-59
2022/08/14 13:00:09;;;;;;;4.82;4.35;;;;;;;;;;4990556;28;20042;-58
2022/08/14 13:02:40;;;;;;;3.95;3.65;;;;;;;;;;4990397;28;20421;-59
2022/08/14 13:05:08;;;;;;;3.70;3.40;;;;;;;;;;4990202;28;20045;-59
2022/08/14 13:07:34;;;;;;;4.20;3.80;;;;;;;;;;4990122;28;20046;-58
2022/08/14 13:10:01;;;;;;;5.03;3.83;;;;;;;;;;4990507;28;20042;-59
2022/08/14 13:12:28;;;;;;;4.47;4.07;;;;;;;;;;4990133;28;20038;-59
2022/08/14 13:14:58;;;;;;;4.50;4.10;;;;;;;;;;4990530;28;20418;-59
2022/08/14 13:17:25;;;;;;;4.47;4.05;;;;;;;;;;4990402;28;20040;-59
2022/08/14 13:19:55;;;;;;;5.18;3.92;;;;;;;;;;4990064;28;20121;-59
2022/08/14 13:22:26;;;;;;;5.95;3.65;;;;;;;;;;4972964;28;20053;-59
2022/08/14 13:24:53;;;;;;;4.47;4.07;;;;;;;;;;4990473;28;20501;-59
2022/08/14 13:27:22;;;;;;;3.63;3.33;;;;;;;;;;4970256;28;20049;-59
2022/08/14 13:29:51;;;;;;;4.25;3.85;;;;;;;;;;4970916;28;20058;-59
2022/08/14 13:32:17;;;;;;;4.32;3.92;;;;;;;;;;4970519;28;20062;-59
2022/08/14 13:34:44;;;;;;;5.38;4.13;;;;;;;;;;4970135;28;20126;-59
2022/08/14 13:37:10;;;;;;;3.88;3.58;;;;;;;;;;4970464;28;20066;-59
2022/08/14 13:39:36;;;;;;;4.72;3.60;;;;;;;;;;4971016;28;20035;-59
2022/08/14 13:42:10;;;;;;;4.50;3.65;;;;;;;;;;4970236;28;20043;-59
2022/08/14 13:44:37;;;;;;;4.30;3.90;;;;;;;;;;4989424;28;20472;-59
2022/08/14 13:47:05;;;;;;;4.60;3.35;;;;;;;;;;4989931;28;20063;-59
2022/08/14 13:49:32;;;;;;;4.57;4.03;;;;;;;;;;4989609;28;20591;-59
2022/08/14 13:51:58;;;;;;;3.95;3.65;;;;;;;;;;4996235;28;20057;-58
2022/08/14 13:54:29;;;;;;;4.75;3.53;;;;;;;;;;4996435;28;20332;-59
2022/08/14 13:56:57;;;;;;;5.25;3.95;;;;;;;;;;4996284;28;20169;-59
2022/08/14 13:59:27;;;;;;;5.05;4.15;;;;;;;;;;4996830;28;20525;-59
2022/08/14 14:01:55;;;;;;;3.73;3.43;;;;;;;;;;4996625;28;20054;-59
2022/08/14 14:04:22;;;;;;;3.90;3.60;;;;;;;;;;4996117;28;20502;-59
2022/08/14 14:06:50;;;;;;;5.13;3.90;;;;;;;;;;4996319;28;20088;-59
2022/08/14 14:09:27;;;;;;;5.40;3.67;;;;;;;;;;4996586;28;20054;-59
2022/08/14 14:11:54;;;;;;;3.70;3.45;;;;;;;;;;4995887;28;20210;-59
2022/08/14 14:14:21;;;;;;;5.50;3.95;;;;;;;;;;4995997;28;20073;-59
2022/08/14 14:16:48;;;;;;;5.38;3.80;;;;;;;;;;4996266;28;20437;-58
2022/08/14 14:19:18;;;;;;;4.93;3.80;;;;;;;;;;4995955;28;20031;-59
2022/08/14 14:21:44;;;;;;;4.63;3.83;;;;;;;;;;4996482;28;20503;-59
2022/08/14 14:24:10;;;;;;;4.05;3.65;;;;;;;;;;4996277;28;20046;-59
2022/08/14 14:26:37;;;;;;;5.05;4.25;;;;;;;;;;4995846;28;20397;-59
2022/08/14 14:29:05;;;;;;;4.45;3.58;;;;;;;;;;4996266;28;20042;-59
2022/08/14 14:31:31;;;;;;;7.65;4.03;;;;;;;;;;4996220;28;20034;-59
2022/08/14 14:34:01;;;;;;;4.40;4.00;;;;;;;;;;4995789;28;20050;-59
2022/08/14 14:36:29;;;;;;;4.95;3.65;;;;;;;;;;4996330;28;20053;-59
2022/08/14 14:38:57;;;;;;;4.63;3.80;;;;;;;;;;4996098;28;20444;-59
2022/08/14 14:41:24;;;;;;;4.30;3.90;;;;;;;;;;4995697;28;20121;-59
2022/08/14 14:43:51;;;;;;;4.47;3.97;;;;;;;;;;4995943;28;20038;-59
2022/08/14 14:46:18;;;;;;;4.55;4.00;;;;;;;;;;4995944;28;20046;-59
2022/08/14 14:48:44;;;;;;;4.60;4.20;;;;;;;;;;4995243;28;20062;-59
2022/08/14 14:51:12;;;;;;;4.60;4.20;;;;;;;;;;4996162;28;20075;-59
2022/08/14 14:53:39;;;;;;;4.60;4.20;;;;;;;;;;4996324;28;20050;-59
2022/08/14 14:56:05;;;;;;;5.78;3.95;;;;;;;;;;4995628;28;20039;-59
2022/08/14 14:58:31;;;;;;;4.25;3.85;;;;;;;;;;4995816;28;20050;-59
2022/08/14 15:00:58;;;;;;;5.93;4.05;;;;;;;;;;4995956;28;20038;-60